Time;durP1;ratioP1;P1;durP2;ratioP2;P2;SDS_P1;SDS_P2;PMS_P1;PMS_P2;Temp;Humidity;BMP_temperature;BMP_pressure;BME280_temperature;BME280_humidity;BME280_pressure;Samples;Min_cycle;Max_cycle;Signal;HPM_P1;HPM_P2
2022/06/19 00:00:07;;;;;;;;;;;26.30;41.30;;;;;;1537434;76;771;-63
2022/06/19 00:02:10;;;;;;;;;;;26.30;41.30;;;;;;1533169;76;807;-63
2022/06/19 00:04:12;;;;;;;;;;;26.30;41.30;;;;;;1526561;76;681;-65
2022/06/19 00:06:14;;;;;;;;;;;26.40;41.40;;;;;;1528964;76;724;-61
2022/06/19 00:08:16;;;;;;;;;;;26.40;41.40;;;;;;1536726;76;1159;-63
2022/06/19 00:10:18;;;;;;;;;;;26.30;41.30;;;;;;1538772;76;678;-64
2022/06/19 00:12:20;;;;;;;;;;;26.40;41.30;;;;;;1526352;76;1931;-63
2022/06/19 00:14:23;;;;;;;;;;;26.40;41.30;;;;;;1531314;76;1591;-62
2022/06/19 00:16:24;;;;;;;;;;;26.30;41.30;;;;;;1527961;76;659;-64
2022/06/19 00:18:26;;;;;;;;;;;26.30;41.30;;;;;;1532962;76;1137;-63
2022/06/19 00:20:28;;;;;;;;;;;26.30;41.30;;;;;;1536109;76;711;-64
2022/06/19 00:22:30;;;;;;;;;;;26.30;41.40;;;;;;1541779;76;673;-63
2022/06/19 00:24:32;;;;;;;;;;;26.30;41.40;;;;;;1546020;76;696;-63
2022/06/19 00:26:34;;;;;;;;;;;26.30;41.30;;;;;;1533816;76;732;-63
2022/06/19 00:28:36;;;;;;;;;;;26.30;41.30;;;;;;1526965;76;1152;-64
2022/06/19 00:30:38;;;;;;;;;;;26.40;41.30;;;;;;1536605;76;673;-65
2022/06/19 00:32:39;;;;;;;;;;;26.40;41.40;;;;;;1525275;76;1929;-63
2022/06/19 00:34:41;;;;;;;;;;;26.40;41.40;;;;;;1528236;76;732;-63
2022/06/19 00:36:48;;;;;;;;;;;26.30;41.30;;;;;;1536382;76;707;-63
2022/06/19 00:38:47;;;;;;;;;;;26.30;41.40;;;;;;1541639;76;1505;-63
2022/06/19 00:40:49;;;;;;;;;;;26.30;41.40;;;;;;1536619;76;738;-63
2022/06/19 00:42:51;;;;;;;;;;;26.30;41.40;;;;;;1527242;76;680;-63
2022/06/19 00:44:53;;;;;;;;;;;26.20;41.40;;;;;;1533099;76;654;-66
2022/06/19 00:46:55;;;;;;;;;;;26.30;41.40;;;;;;1542714;76;691;-63
2022/06/19 00:48:57;;;;;;;;;;;26.30;41.50;;;;;;1534328;76;1206;-63
2022/06/19 00:51:02;;;;;;;;;;;26.30;41.40;;;;;;1543683;76;979;-64
2022/06/19 00:53:05;;;;;;;;;;;26.30;41.40;;;;;;1537477;76;1913;-65
2022/06/19 00:55:08;;;;;;;;;;;26.30;41.40;;;;;;1535556;76;657;-62
2022/06/19 00:57:10;;;;;;;;;;;26.30;41.40;;;;;;1520495;76;690;-64
2022/06/19 00:59:12;;;;;;;;;;;26.30;41.40;;;;;;1538942;73;231215;-68
2022/06/19 01:01:14;;;;;;;;;;;26.30;41.50;;;;;;1555251;75;639;-67
2022/06/19 01:03:18;;;;;;;;;;;26.30;41.50;;;;;;1562941;75;634;-67
2022/06/19 01:05:20;;;;;;;;;;;26.30;41.40;;;;;;1571247;75;686;-67
2022/06/19 01:07:22;;;;;;;;;;;26.30;41.40;;;;;;1560670;75;687;-67
2022/06/19 01:09:24;;;;;;;;;;;26.30;41.40;;;;;;1555578;75;1208;-68
2022/06/19 01:11:27;;;;;;;;;;;26.30;41.50;;;;;;1562239;75;1442;-67
2022/06/19 01:13:29;;;;;;;;;;;26.30;41.50;;;;;;1552872;75;1931;-67
2022/06/19 01:15:31;;;;;;;;;;;26.30;41.50;;;;;;1555064;75;620;-67
2022/06/19 01:17:33;;;;;;;;;;;26.30;41.50;;;;;;1556692;75;706;-66
2022/06/19 01:19:38;;;;;;;;;;;26.30;41.50;;;;;;1555796;75;1185;-67
2022/06/19 01:21:52;;;;;;;;;;;26.30;41.50;;;;;;1558197;75;1436;-67
2022/06/19 01:23:58;;;;;;;;;;;26.30;41.50;;;;;;1541605;75;662;-67
2022/06/19 01:26:00;;;;;;;;;;;26.30;41.50;;;;;;1554489;75;1785;-68
2022/06/19 01:30:24;;;;;;;;;;;26.30;41.50;;;;;;1553060;75;1662;-68
2022/06/19 01:32:26;;;;;;;;;;;26.20;41.50;;;;;;1555314;75;1917;-67
2022/06/19 01:34:31;;;;;;;;;;;26.30;41.50;;;;;;1554276;75;674;-67
2022/06/19 01:36:32;;;;;;;;;;;26.30;41.50;;;;;;1554767;75;1731;-68
2022/06/19 01:38:34;;;;;;;;;;;26.30;41.50;;;;;;1557105;75;697;-67
2022/06/19 01:40:36;;;;;;;;;;;26.30;41.50;;;;;;1551573;75;1086;-68
2022/06/19 01:42:38;;;;;;;;;;;26.20;41.50;;;;;;1556286;75;687;-68
2022/06/19 01:44:40;;;;;;;;;;;26.30;41.50;;;;;;1551915;75;717;-68
2022/06/19 01:46:42;;;;;;;;;;;26.30;41.50;;;;;;1553872;75;813;-66
2022/06/19 01:48:44;;;;;;;;;;;26.30;41.50;;;;;;1554955;75;1133;-64
2022/06/19 01:50:46;;;;;;;;;;;26.20;41.50;;;;;;1519913;77;689;-68
2022/06/19 01:52:48;;;;;;;;;;;26.30;41.50;;;;;;1495895;79;1922;-66
2022/06/19 01:54:51;;;;;;;;;;;26.30;41.50;;;;;;1538683;76;600;-68
2022/06/19 01:56:53;;;;;;;;;;;26.20;41.50;;;;;;1526765;76;657;-68
2022/06/19 01:58:56;;;;;;;;;;;26.20;41.50;;;;;;1535797;75;1093;-67
2022/06/19 02:00:58;;;;;;;;;;;26.30;41.50;;;;;;1521601;76;808;-68
2022/06/19 02:03:07;;;;;;;;;;;26.30;41.50;;;;;;1539755;76;653;-68
2022/06/19 02:05:09;;;;;;;;;;;26.30;41.50;;;;;;1533753;76;698;-67
2022/06/19 02:07:15;;;;;;;;;;;26.20;41.50;;;;;;1527758;76;1443;-66
2022/06/19 02:09:18;;;;;;;;;;;26.20;41.50;;;;;;1486564;79;1142;-66
2022/06/19 02:11:20;;;;;;;;;;;26.20;41.50;;;;;;1498245;78;659;-66
2022/06/19 02:13:22;;;;;;;;;;;26.20;41.50;;;;;;1500820;78;1939;-67
2022/06/19 02:15:23;;;;;;;;;;;26.20;41.50;;;;;;1501161;78;927;-65
2022/06/19 02:17:35;;;;;;;;;;;26.20;41.50;;;;;;1501732;78;722;-66
2022/06/19 02:19:37;;;;;;;;;;;26.30;41.50;;;;;;1499714;78;1120;-67
2022/06/19 02:21:40;;;;;;;;;;;26.20;41.50;;;;;;1499425;78;677;-68
2022/06/19 02:23:42;;;;;;;;;;;26.20;41.60;;;;;;1484343;78;716;-67
2022/06/19 02:25:44;;;;;;;;;;;26.20;41.50;;;;;;1498311;78;699;-67
2022/06/19 02:27:46;;;;;;;;;;;26.20;41.50;;;;;;1497029;78;689;-67
2022/06/19 02:29:48;;;;;;;;;;;26.20;41.50;;;;;;1501468;78;1186;-67
2022/06/19 02:31:51;;;;;;;;;;;26.30;41.60;;;;;;1500531;77;720;-68
2022/06/19 02:33:54;;;;;;;;;;;26.20;41.50;;;;;;1504346;78;1940;-67
2022/06/19 02:35:56;;;;;;;;;;;26.20;41.50;;;;;;1497853;78;707;-68
2022/06/19 02:37:58;;;;;;;;;;;26.20;41.50;;;;;;1500202;78;627;-67
2022/06/19 02:40:10;;;;;;;;;;;26.30;41.50;;;;;;1558922;75;1153;-67
2022/06/19 02:42:20;;;;;;;;;;;26.20;41.50;;;;;;1523986;75;1638;-68
2022/06/19 02:44:22;;;;;;;;;;;26.10;41.50;;;;;;1559485;75;1799;-67
2022/06/19 02:46:24;;;;;;;;;;;26.10;41.50;;;;;;1555650;75;676;-67
2022/06/19 02:48:26;;;;;;;;;;;26.20;41.60;;;;;;1555294;75;721;-67
2022/06/19 02:50:30;;;;;;;;;;;26.10;41.60;;;;;;1559164;75;1129;-66
2022/06/19 02:52:31;;;;;;;;;;;26.20;41.60;;;;;;1558904;75;1925;-67
2022/06/19 02:54:33;;;;;;;;;;;26.20;41.60;;;;;;1567040;75;686;-68
2022/06/19 02:56:35;;;;;;;;;;;26.20;41.50;;;;;;1557987;75;582;-68
2022/06/19 02:58:37;;;;;;;;;;;26.20;41.70;;;;;;1552312;75;688;-70
2022/06/19 03:00:39;;;;;;;;;;;26.20;41.60;;;;;;1559946;74;1214;-68
2022/06/19 03:02:41;;;;;;;;;;;26.20;41.60;;;;;;1561065;75;1608;-65
2022/06/19 03:04:45;;;;;;;;;;;26.20;41.60;;;;;;1562120;75;674;-68
2022/06/19 03:06:47;;;;;;;;;;;26.20;41.60;;;;;;1559384;75;628;-68
2022/06/19 03:08:49;;;;;;;;;;;26.20;41.60;;;;;;1560995;75;1152;-67
2022/06/19 03:10:51;;;;;;;;;;;26.20;41.60;;;;;;1557068;75;761;-67
2022/06/19 03:12:53;;;;;;;;;;;26.20;41.60;;;;;;1563775;75;1942;-68
2022/06/19 03:14:54;;;;;;;;;;;26.20;41.60;;;;;;1554073;75;695;-68
2022/06/19 03:16:56;;;;;;;;;;;26.30;41.60;;;;;;1556310;75;665;-68
2022/06/19 03:18:59;;;;;;;;;;;26.20;41.60;;;;;;1556943;75;1125;-68
2022/06/19 03:21:01;;;;;;;;;;;26.20;41.60;;;;;;1564329;75;743;-64
2022/06/19 03:23:03;;;;;;;;;;;26.20;41.60;;;;;;1557927;75;805;-68
2022/06/19 03:25:05;;;;;;;;;;;26.20;41.50;;;;;;1568121;75;675;-67
2022/06/19 03:27:07;;;;;;;;;;;26.20;41.60;;;;;;1555003;75;690;-66
2022/06/19 03:29:09;;;;;;;;;;;26.30;41.60;;;;;;1560335;74;1191;-66
2022/06/19 03:31:14;;;;;;;;;;;26.20;41.60;;;;;;1560554;75;640;-68
2022/06/19 03:33:16;;;;;;;;;;;26.20;41.60;;;;;;1564532;75;1936;-67
2022/06/19 03:35:18;;;;;;;;;;;26.20;41.60;;;;;;1561525;75;664;-67
2022/06/19 03:37:20;;;;;;;;;;;26.20;41.60;;;;;;1555740;75;693;-67
2022/06/19 03:39:22;;;;;;;;;;;26.20;41.60;;;;;;1556513;75;1148;-65
2022/06/19 03:41:24;;;;;;;;;;;26.20;41.60;;;;;;1552660;75;710;-67
2022/06/19 03:43:26;;;;;;;;;;;26.20;41.60;;;;;;1558209;75;680;-68
2022/06/19 03:45:27;;;;;;;;;;;26.20;41.60;;;;;;1564871;75;656;-67
2022/06/19 03:47:30;;;;;;;;;;;26.20;41.60;;;;;;1564737;75;655;-67
2022/06/19 03:49:32;;;;;;;;;;;26.10;41.70;;;;;;1558825;75;1119;-67
2022/06/19 03:51:34;;;;;;;;;;;26.20;41.70;;;;;;1556816;75;698;-67
2022/06/19 03:53:36;;;;;;;;;;;26.10;41.70;;;;;;1560460;75;1936;-66
2022/06/19 03:55:38;;;;;;;;;;;26.20;41.70;;;;;;1554003;75;572;-67
2022/06/19 03:57:40;;;;;;;;;;;26.10;41.70;;;;;;1563186;75;640;-68
2022/06/19 03:59:42;;;;;;;;;;;26.20;41.70;;;;;;1560759;75;1536;-67
2022/06/19 04:01:44;;;;;;;;;;;26.20;41.70;;;;;;1563304;75;762;-66
2022/06/19 04:03:46;;;;;;;;;;;26.20;41.70;;;;;;1559559;75;719;-67
2022/06/19 04:05:49;;;;;;;;;;;26.20;41.70;;;;;;1558366;75;711;-66
2022/06/19 04:07:51;;;;;;;;;;;26.10;41.80;;;;;;1563313;75;687;-67
2022/06/19 04:09:54;;;;;;;;;;;26.20;41.70;;;;;;1560269;75;1165;-67
2022/06/19 04:11:56;;;;;;;;;;;26.20;41.80;;;;;;1560403;75;1915;-67
2022/06/19 04:13:58;;;;;;;;;;;26.20;41.80;;;;;;1562085;75;1978;-67
2022/06/19 04:16:00;;;;;;;;;;;26.20;41.80;;;;;;1556703;75;721;-67
2022/06/19 04:18:02;;;;;;;;;;;26.20;41.80;;;;;;1563548;75;582;-68
2022/06/19 04:20:04;;;;;;;;;;;26.20;41.80;;;;;;1565071;74;1146;-67
2022/06/19 04:22:06;;;;;;;;;;;26.10;41.80;;;;;;1562751;75;680;-67
2022/06/19 04:24:09;;;;;;;;;;;26.20;41.80;;;;;;1567679;75;731;-68
2022/06/19 04:26:11;;;;;;;;;;;26.20;41.80;;;;;;1535830;76;731;-66
2022/06/19 04:28:13;;;;;;;;;;;26.20;41.80;;;;;;1524088;77;796;-67
2022/06/19 04:30:15;;;;;;;;;;;26.10;41.80;;;;;;1493598;78;1177;-67
2022/06/19 04:32:17;;;;;;;;;;;26.20;41.80;;;;;;1487035;78;728;-68
2022/06/19 04:34:19;;;;;;;;;;;26.20;41.80;;;;;;1480360;78;1927;-67
2022/06/19 04:36:22;;;;;;;;;;;26.20;41.80;;;;;;1488204;78;692;-67
2022/06/19 04:38:24;;;;;;;;;;;26.20;41.80;;;;;;1501115;77;738;-67
2022/06/19 04:40:28;;;;;;;;;;;26.20;41.90;;;;;;1498161;78;1118;-66
2022/06/19 04:42:29;;;;;;;;;;;26.20;41.80;;;;;;1496778;77;1161;-68
2022/06/19 04:44:31;;;;;;;;;;;26.20;41.90;;;;;;1501229;78;665;-68
2022/06/19 04:46:33;;;;;;;;;;;26.30;41.90;;;;;;1506790;77;693;-68
2022/06/19 04:48:35;;;;;;;;;;;26.20;41.90;;;;;;1495933;78;654;-67
2022/06/19 04:50:37;;;;;;;;;;;26.40;41.80;;;;;;1561405;75;1086;-68
2022/06/19 04:52:39;;;;;;;;;;;26.30;41.80;;;;;;1556096;75;727;-68
2022/06/19 04:54:42;;;;;;;;;;;26.30;41.80;;;;;;1521977;77;1933;-64
2022/06/19 04:56:46;;;;;;;;;;;26.40;41.70;;;;;;1522011;76;697;-68
2022/06/19 04:58:47;;;;;;;;;;;26.40;41.80;;;;;;1494889;77;1601;-68
2022/06/19 05:00:49;;;;;;;;;;;26.50;41.60;;;;;;1486225;78;691;-68
2022/06/19 05:02:51;;;;;;;;;;;26.40;41.60;;;;;;1484883;78;763;-67
2022/06/19 05:04:53;;;;;;;;;;;26.50;41.50;;;;;;1509515;78;669;-68
2022/06/19 05:06:55;;;;;;;;;;;26.50;41.50;;;;;;1501806;78;674;-68
2022/06/19 05:08:58;;;;;;;;;;;26.50;41.40;;;;;;1498375;78;1159;-68
2022/06/19 05:11:00;;;;;;;;;;;26.50;41.30;;;;;;1503132;78;853;-68
2022/06/19 05:13:05;;;;;;;;;;;26.60;41.20;;;;;;1510565;77;694;-68
2022/06/19 05:15:06;;;;;;;;;;;26.70;41.10;;;;;;1508150;77;1912;-68
2022/06/19 05:17:08;;;;;;;;;;;26.70;41.10;;;;;;1504858;78;710;-68
2022/06/19 05:19:10;;;;;;;;;;;26.70;41.00;;;;;;1501990;78;1148;-68
2022/06/19 05:21:12;;;;;;;;;;;26.70;40.90;;;;;;1483504;78;885;-68
2022/06/19 05:23:14;;;;;;;;;;;26.80;40.90;;;;;;1523515;76;629;-68
2022/06/19 05:25:16;;;;;;;;;;;26.80;40.80;;;;;;1519515;76;742;-66
2022/06/19 05:27:17;;;;;;;;;;;26.80;40.70;;;;;;1514369;76;610;-68
2022/06/19 05:29:19;;;;;;;;;;;26.80;40.70;;;;;;1524203;76;1274;-68
2022/06/19 05:31:21;;;;;;;;;;;26.90;40.60;;;;;;1527897;76;699;-68
2022/06/19 05:33:23;;;;;;;;;;;26.90;40.50;;;;;;1542200;76;648;-67
2022/06/19 05:35:25;;;;;;;;;;;27.00;41.00;;;;;;1532399;77;1940;-68
2022/06/19 05:37:27;;;;;;;;;;;27.10;41.00;;;;;;1524481;76;663;-68
2022/06/19 05:39:29;;;;;;;;;;;27.00;40.80;;;;;;1532683;76;1086;-67
2022/06/19 05:41:31;;;;;;;;;;;27.10;40.80;;;;;;1543191;76;700;-68
2022/06/19 05:43:34;;;;;;;;;;;27.10;40.70;;;;;;1534156;76;846;-68
2022/06/19 05:45:36;;;;;;;;;;;27.10;40.70;;;;;;1530221;76;683;-67
2022/06/19 05:47:37;;;;;;;;;;;27.10;40.60;;;;;;1544166;76;721;-67
2022/06/19 05:49:39;;;;;;;;;;;27.20;40.40;;;;;;1532246;76;1146;-68
2022/06/19 05:51:41;;;;;;;;;;;27.20;40.30;;;;;;1525111;76;1338;-67
2022/06/19 05:53:44;;;;;;;;;;;27.30;40.20;;;;;;1531059;76;1922;-68
2022/06/19 05:55:46;;;;;;;;;;;27.40;40.00;;;;;;1537383;76;692;-67
2022/06/19 05:57:49;;;;;;;;;;;27.40;40.00;;;;;;1543134;76;672;-68
2022/06/19 05:59:51;;;;;;;;;;;27.40;39.90;;;;;;1541263;76;1126;-67
2022/06/19 06:01:53;;;;;;;;;;;27.40;39.90;;;;;;1538783;76;758;-68
2022/06/19 06:03:55;;;;;;;;;;;27.50;39.80;;;;;;1527503;76;698;-68
2022/06/19 06:06:00;;;;;;;;;;;27.50;39.70;;;;;;1531048;76;750;-68
2022/06/19 06:08:02;;;;;;;;;;;27.50;39.70;;;;;;1528117;76;700;-68
2022/06/19 06:10:04;;;;;;;;;;;27.50;39.70;;;;;;1531065;76;1166;-68
2022/06/19 06:12:07;;;;;;;;;;;27.60;39.60;;;;;;1522116;76;694;-68
2022/06/19 06:14:09;;;;;;;;;;;27.60;39.50;;;;;;1538721;76;1919;-68
2022/06/19 06:16:12;;;;;;;;;;;27.60;39.40;;;;;;1519608;76;798;-68
2022/06/19 06:18:14;;;;;;;;;;;27.60;39.40;;;;;;1533873;76;1006;-68
2022/06/19 06:20:16;;;;;;;;;;;27.70;39.20;;;;;;1526380;76;1161;-68
2022/06/19 06:22:18;;;;;;;;;;;27.70;39.20;;;;;;1547883;76;676;-68
2022/06/19 06:24:20;;;;;;;;;;;27.70;39.10;;;;;;1533112;76;1050;-67
2022/06/19 06:26:23;;;;;;;;;;;27.70;39.00;;;;;;1543474;76;651;-68
2022/06/19 06:28:24;;;;;;;;;;;27.70;39.00;;;;;;1535901;76;666;-67
2022/06/19 06:30:26;;;;;;;;;;;27.80;38.90;;;;;;1539426;75;1172;-67
2022/06/19 06:32:28;;;;;;;;;;;27.80;38.90;;;;;;1527901;76;669;-68
2022/06/19 06:34:30;;;;;;;;;;;27.80;38.80;;;;;;1546312;76;1936;-67
2022/06/19 06:36:32;;;;;;;;;;;27.80;38.80;;;;;;1528030;76;723;-67
2022/06/19 06:38:34;;;;;;;;;;;27.80;38.70;;;;;;1534822;76;779;-67
2022/06/19 06:40:36;;;;;;;;;;;27.90;38.70;;;;;;1513294;76;1125;-68
2022/06/19 06:42:38;;;;;;;;;;;27.90;38.60;;;;;;1544981;76;762;-68
2022/06/19 06:44:40;;;;;;;;;;;27.90;38.60;;;;;;1525139;76;686;-68
2022/06/19 06:46:41;;;;;;;;;;;27.80;38.60;;;;;;1532681;76;617;-67
2022/06/19 06:48:43;;;;;;;;;;;27.90;38.60;;;;;;1534151;75;1419;-68
2022/06/19 06:50:45;;;;;;;;;;;27.90;38.50;;;;;;1528681;76;677;-68
2022/06/19 06:52:47;;;;;;;;;;;27.90;38.40;;;;;;1543587;76;722;-65
2022/06/19 06:54:49;;;;;;;;;;;28.00;39.00;;;;;;1535451;76;1930;-67
2022/06/19 06:56:52;;;;;;;;;;;28.00;38.90;;;;;;1536957;76;737;-66
2022/06/19 06:59:14;;;;;;;;;;;28.00;38.90;;;;;;1510296;78;1171;-65
2022/06/19 07:01:17;;;;;;;;;;;28.00;38.90;;;;;;1490721;78;648;-66
2022/06/19 07:03:19;;;;;;;;;;;28.10;38.80;;;;;;1502490;78;655;-66
2022/06/19 07:05:21;;;;;;;;;;;28.00;38.80;;;;;;1503720;78;667;-66
2022/06/19 07:07:23;;;;;;;;;;;28.00;38.80;;;;;;1501564;78;519;-66
2022/06/19 07:09:25;;;;;;;;;;;28.10;38.70;;;;;;1501025;77;1206;-66
2022/06/19 07:11:28;;;;;;;;;;;28.10;38.70;;;;;;1510441;77;667;-66
2022/06/19 07:13:30;;;;;;;;;;;28.10;38.70;;;;;;1500952;78;1044;-66
2022/06/19 07:15:33;;;;;;;;;;;28.10;38.60;;;;;;1506997;77;1946;-66
2022/06/19 07:17:35;;;;;;;;;;;28.10;38.60;;;;;;1517523;77;662;-66
2022/06/19 07:19:37;;;;;;;;;;;28.20;38.50;;;;;;1505932;77;1159;-65
2022/06/19 07:21:39;;;;;;;;;;;28.20;38.60;;;;;;1498685;77;616;-66
2022/06/19 07:23:41;;;;;;;;;;;28.20;38.50;;;;;;1498843;77;720;-65
2022/06/19 07:25:43;;;;;;;;;;;28.20;38.50;;;;;;1499886;77;728;-66
2022/06/19 07:27:45;;;;;;;;;;;28.20;38.40;;;;;;1504927;77;676;-67
2022/06/19 07:29:47;;;;;;;;;;;28.20;38.40;;;;;;1505330;77;1121;-67
2022/06/19 07:31:49;;;;;;;;;;;28.20;38.50;;;;;;1502820;77;757;-67
2022/06/19 07:33:51;;;;;;;;;;;28.20;38.40;;;;;;1504499;77;754;-66
2022/06/19 07:35:52;;;;;;;;;;;28.20;38.40;;;;;;1504942;77;1943;-65
2022/06/19 07:37:54;;;;;;;;;;;28.20;38.40;;;;;;1503531;77;776;-66
2022/06/19 07:39:56;;;;;;;;;;;28.20;38.40;;;;;;1505744;77;1157;-65
2022/06/19 07:41:59;;;;;;;;;;;28.20;38.40;;;;;;1499320;77;722;-66
2022/06/19 07:44:01;;;;;;;;;;;28.10;38.20;;;;;;1505606;77;1344;-65
2022/06/19 07:46:03;;;;;;;;;;;28.20;38.30;;;;;;1499837;77;667;-66
2022/06/19 07:50:26;;;;;;;;;;;28.20;38.20;;;;;;1498491;77;1188;-67
2022/06/19 07:52:28;;;;;;;;;;;28.20;38.20;;;;;;1501059;77;2045;-66
2022/06/19 07:54:30;;;;;;;;;;;28.20;38.30;;;;;;1503618;77;1941;-66
2022/06/19 07:56:32;;;;;;;;;;;28.20;38.30;;;;;;1501477;77;678;-66
2022/06/19 07:58:36;;;;;;;;;;;28.20;38.30;;;;;;1507183;77;964;-66
2022/06/19 08:00:38;;;;;;;;;;;28.20;38.30;;;;;;1505053;77;1140;-65
2022/06/19 08:02:40;;;;;;;;;;;28.10;38.30;;;;;;1462483;80;674;-66
2022/06/19 08:04:42;;;;;;;;;;;28.20;38.40;;;;;;1498208;77;1020;-66
2022/06/19 08:06:44;;;;;;;;;;;28.10;38.40;;;;;;1515404;77;743;-66
2022/06/19 08:08:46;;;;;;;;;;;28.30;38.40;;;;;;1516989;77;770;-67
2022/06/19 08:10:53;;;;;;;;;;;28.20;38.30;;;;;;1512496;77;1152;-66
2022/06/19 08:12:53;;;;;;;;;;;28.20;38.40;;;;;;1509980;77;1562;-66
2022/06/19 08:14:54;;;;;;;;;;;28.20;38.40;;;;;;1533106;77;1954;-65
2022/06/19 08:16:56;;;;;;;;;;;28.20;38.20;;;;;;1517762;77;775;-66
2022/06/19 08:18:58;;;;;;;;;;;28.20;38.30;;;;;;1516076;77;764;-66
2022/06/19 08:21:01;;;;;;;;;;;28.20;38.30;;;;;;1512058;77;1172;-66
2022/06/19 08:23:05;;;;;;;;;;;28.20;38.30;;;;;;1506686;77;802;-66
2022/06/19 08:25:08;;;;;;;;;;;28.20;38.30;;;;;;1514270;77;1981;-64
2022/06/19 08:27:10;;;;;;;;;;;28.20;38.40;;;;;;1511525;77;766;-65
2022/06/19 08:29:12;;;;;;;;;;;28.10;38.40;;;;;;1518961;77;1179;-66
2022/06/19 08:31:14;;;;;;;;;;;28.20;38.30;;;;;;1516325;77;707;-65
2022/06/19 08:33:16;;;;;;;;;;;28.20;38.30;;;;;;1513818;77;921;-66
2022/06/19 08:35:18;;;;;;;;;;;28.20;38.20;;;;;;1487722;78;1928;-66
2022/06/19 08:37:20;;;;;;;;;;;28.30;38.10;;;;;;1507035;77;737;-67
2022/06/19 08:39:22;;;;;;;;;;;28.40;38.00;;;;;;1508810;77;1178;-66
2022/06/19 08:41:31;;;;;;;;;;;28.40;38.00;;;;;;1504027;77;1704;-66
2022/06/19 08:43:38;;;;;;;;;;;28.40;37.90;;;;;;1501724;77;683;-65
2022/06/19 08:45:44;;;;;;;;;;;28.40;37.90;;;;;;1515329;77;725;-66
2022/06/19 08:47:54;;;;;;;;;;;28.40;37.90;;;;;;1498971;77;694;-65
2022/06/19 08:50:07;;;;;;;;;;;28.40;38.00;;;;;;1508755;77;1745;-66
2022/06/19 08:52:10;;;;;;;;;;;28.30;37.90;;;;;;1504157;77;794;-64
2022/06/19 08:54:13;;;;;;;;;;;28.30;38.00;;;;;;1499700;77;1819;-65
2022/06/19 08:56:33;;;;;;;;;;;28.30;38.00;;;;;;1485026;79;1963;-66
2022/06/19 08:58:40;;;;;;;;;;;28.40;37.90;;;;;;1494824;77;659;-68
2022/06/19 09:00:49;;;;;;;;;;;28.40;37.90;;;;;;1506029;77;1161;-66
2022/06/19 09:02:52;;;;;;;;;;;28.40;37.90;;;;;;1504349;77;1643;-66
2022/06/19 09:07:37;;;;;;;;;;;28.40;37.90;;;;;;1493996;77;1681;-64
2022/06/19 09:09:47;;;;;;;;;;;28.30;37.80;;;;;;1501305;77;1550;-66
2022/06/19 09:11:53;;;;;;;;;;;28.30;37.80;;;;;;1506505;77;1917;-67
2022/06/19 09:13:57;;;;;;;;;;;28.30;37.90;;;;;;1508249;77;704;-65
2022/06/19 09:16:03;;;;;;;;;;;28.40;37.90;;;;;;1502183;77;1949;-65
2022/06/19 09:18:09;;;;;;;;;;;28.30;37.90;;;;;;1455386;80;1101;-66
2022/06/19 09:20:29;;;;;;;;;;;28.40;38.00;;;;;;1517121;77;2135;-66
2022/06/19 09:22:35;;;;;;;;;;;28.30;38.00;;;;;;1509484;77;679;-66
2022/06/19 09:24:39;;;;;;;;;;;28.20;38.20;;;;;;1512756;77;715;-65
2022/06/19 09:26:42;;;;;;;;;;;28.20;38.40;;;;;;1508343;77;1525;-66
2022/06/19 09:28:46;;;;;;;;;;;28.10;38.50;;;;;;1515838;77;1816;-67
2022/06/19 09:30:52;;;;;;;;;;;28.10;38.50;;;;;;1500203;77;1169;-65
2022/06/19 09:32:56;;;;;;;;;;;28.10;38.60;;;;;;1509183;77;1489;-65
2022/06/19 09:34:59;;;;;;;;;;;28.10;38.60;;;;;;1508179;77;1930;-65
2022/06/19 09:37:17;;;;;;;;;;;28.10;38.60;;;;;;1514818;77;1517;-66
2022/06/19 09:39:21;;;;;;;;;;;28.00;38.60;;;;;;1518289;77;1155;-65
2022/06/19 09:41:24;;;;;;;;;;;28.00;38.70;;;;;;1509622;77;662;-65
2022/06/19 09:43:28;;;;;;;;;;;28.00;38.80;;;;;;1510233;77;708;-65
2022/06/19 09:45:34;;;;;;;;;;;28.00;38.80;;;;;;1519485;77;776;-66
2022/06/19 09:47:43;;;;;;;;;;;28.00;38.90;;;;;;1522138;77;686;-65
2022/06/19 09:49:47;;;;;;;;;;;28.00;38.90;;;;;;1503735;77;1175;-66
2022/06/19 09:52:03;;;;;;;;;;;28.00;38.90;;;;;;1510831;77;729;-64
2022/06/19 09:54:09;;;;;;;;;;;28.00;38.90;;;;;;1505179;77;1847;-65
2022/06/19 09:56:15;;;;;;;;;;;28.00;38.90;;;;;;1519976;77;2240;-65
2022/06/19 09:58:22;;;;;;;;;;;28.00;38.90;;;;;;1509876;77;1982;-66
2022/06/19 10:00:25;;;;;;;;;;;28.00;38.90;;;;;;1506907;77;1158;-65
2022/06/19 10:02:44;;;;;;;;;;;28.00;38.90;;;;;;1527716;76;774;-65
2022/06/19 10:04:47;;;;;;;;;;;28.00;39.00;;;;;;1539475;76;676;-65
2022/06/19 10:06:54;;;;;;;;;;;28.00;39.00;;;;;;1508609;77;1783;-67
2022/06/19 10:08:57;;;;;;;;;;;28.00;39.00;;;;;;1530499;76;730;-66
2022/06/19 10:10:59;;;;;;;;;;;28.00;39.00;;;;;;1522046;77;1094;-65
2022/06/19 10:13:01;;;;;;;;;;;28.00;39.10;;;;;;1498218;77;601;-65
2022/06/19 10:15:08;;;;;;;;;;;27.90;38.50;;;;;;1539561;76;1953;-65
2022/06/19 10:17:17;;;;;;;;;;;27.90;38.50;;;;;;1523613;76;1926;-63
2022/06/19 10:19:36;;;;;;;;;;;27.90;38.60;;;;;;1512054;76;1261;-65
2022/06/19 10:24:03;;;;;;;;;;;27.80;38.70;;;;;;1489028;78;1692;-65
2022/06/19 10:26:16;;;;;;;;;;;27.80;38.90;;;;;;1521406;77;1959;-65
2022/06/19 10:28:20;;;;;;;;;;;27.80;38.80;;;;;;1510064;78;1506;-64
2022/06/19 10:30:35;;;;;;;;;;;27.90;38.70;;;;;;1514149;78;1163;-65
2022/06/19 10:32:55;;;;;;;;;;;27.90;38.60;;;;;;1525495;76;1555;-66
2022/06/19 10:35:02;;;;;;;;;;;28.00;39.20;;;;;;1528905;76;649;-66
2022/06/19 10:37:05;;;;;;;;;;;28.00;39.20;;;;;;1524807;76;1930;-65
2022/06/19 10:39:09;;;;;;;;;;;28.00;39.10;;;;;;1510955;77;1120;-65
2022/06/19 10:43:53;;;;;;;;;;;28.00;39.10;;;;;;1510886;77;1697;-65
2022/06/19 10:45:58;;;;;;;;;;;27.90;38.40;;;;;;1511667;77;736;-65
2022/06/19 10:48:18;;;;;;;;;;;28.00;39.10;;;;;;1516917;77;696;-67
2022/06/19 10:50:28;;;;;;;;;;;28.00;39.10;;;;;;1518480;78;1282;-65
2022/06/19 10:52:43;;;;;;;;;;;28.00;39.10;;;;;;1515650;77;1918;-65
2022/06/19 10:55:03;;;;;;;;;;;27.90;38.50;;;;;;1523151;76;730;-65
2022/06/19 10:57:16;;;;;;;;;;;27.90;38.50;;;;;;1511231;77;1954;-66
2022/06/19 10:59:18;;;;;;;;;;;27.90;38.50;;;;;;1518018;76;1166;-65
2022/06/19 11:06:14;;;;;;;;;;;27.90;38.40;;;;;;1517742;76;1646;-65
2022/06/19 11:08:16;;;;;;;;;;;27.90;38.40;;;;;;1522266;76;617;-64
2022/06/19 11:10:18;;;;;;;;;;;27.90;38.40;;;;;;1523054;76;1181;-65
2022/06/19 11:12:31;;;;;;;;;;;27.80;38.40;;;;;;1516272;76;818;-65
2022/06/19 11:14:38;;;;;;;;;;;27.90;38.40;;;;;;1519902;76;697;-66
2022/06/19 11:16:54;;;;;;;;;;;27.90;38.40;;;;;;1514865;76;1903;-65
2022/06/19 11:18:57;;;;;;;;;;;27.90;38.40;;;;;;1520921;76;745;-65
2022/06/19 11:21:03;;;;;;;;;;;27.80;38.50;;;;;;1517273;76;1111;-66
2022/06/19 11:23:06;;;;;;;;;;;27.90;38.50;;;;;;1531932;76;703;-67
2022/06/19 11:25:22;;;;;;;;;;;27.80;38.50;;;;;;1509457;76;1148;-65
2022/06/19 11:27:25;;;;;;;;;;;27.90;38.40;;;;;;1496453;78;808;-66
2022/06/19 11:29:27;;;;;;;;;;;27.90;38.40;;;;;;1508431;77;1585;-65
2022/06/19 11:31:30;;;;;;;;;;;27.90;38.40;;;;;;1509336;77;717;-65
2022/06/19 11:33:36;;;;;;;;;;;27.90;38.50;;;;;;1504166;77;689;-66
2022/06/19 11:35:48;;;;;;;;;;;27.90;38.50;;;;;;1516621;76;1938;-65
2022/06/19 11:37:55;;;;;;;;;;;27.90;38.50;;;;;;1514593;76;698;-71
2022/06/19 11:40:01;;;;;;;;;;;27.90;38.50;;;;;;1518131;76;1167;-69
2022/06/19 11:42:21;;;;;;;;;;;27.80;38.60;;;;;;1507799;76;701;-67
2022/06/19 11:44:23;;;;;;;;;;;27.80;38.70;;;;;;1516105;76;629;-67
2022/06/19 11:46:26;;;;;;;;;;;27.70;38.90;;;;;;1524726;76;621;-67
2022/06/19 11:48:28;;;;;;;;;;;27.70;39.00;;;;;;1525352;76;702;-66
2022/06/19 11:50:39;;;;;;;;;;;27.60;39.10;;;;;;1518187;76;1142;-66
2022/06/19 11:52:43;;;;;;;;;;;27.60;39.10;;;;;;1512550;76;1512;-66
2022/06/19 11:54:46;;;;;;;;;;;27.50;39.20;;;;;;1515877;76;1411;-65
2022/06/19 11:56:48;;;;;;;;;;;27.50;39.30;;;;;;1517723;76;1952;-66
2022/06/19 11:58:53;;;;;;;;;;;27.50;39.40;;;;;;1514757;77;1296;-66
2022/06/19 12:00:57;;;;;;;;;;;27.60;39.40;;;;;;1517440;76;1110;-65
2022/06/19 12:03:06;;;;;;;;;;;27.60;39.40;;;;;;1523150;76;1769;-65
2022/06/19 12:05:22;;;;;;;;;;;27.60;39.40;;;;;;1522874;77;741;-66
2022/06/19 12:07:25;;;;;;;;;;;27.60;39.40;;;;;;1522498;76;1859;-66
2022/06/19 12:09:34;;;;;;;;;;;27.70;39.40;;;;;;1520221;76;1156;-66
2022/06/19 12:11:38;;;;;;;;;;;27.70;39.40;;;;;;1525584;76;700;-66
2022/06/19 12:13:41;;;;;;;;;;;27.70;39.40;;;;;;1516023;76;682;-64
2022/06/19 12:15:43;;;;;;;;;;;27.70;39.50;;;;;;1514096;77;1930;-65
2022/06/19 12:17:45;;;;;;;;;;;27.70;39.40;;;;;;1502530;77;1196;-65
2022/06/19 12:19:51;;;;;;;;;;;27.60;39.50;;;;;;1508429;76;1168;-65
2022/06/19 12:22:00;;;;;;;;;;;27.70;39.60;;;;;;1511743;76;918;-65
2022/06/19 12:24:07;;;;;;;;;;;27.60;39.70;;;;;;1513665;76;1796;-66
2022/06/19 12:26:11;;;;;;;;;;;27.70;39.80;;;;;;1517390;76;1517;-65
2022/06/19 12:28:17;;;;;;;;;;;27.70;40.00;;;;;;1517491;76;714;-65
2022/06/19 12:30:20;;;;;;;;;;;27.70;40.30;;;;;;1516279;76;2087;-65
2022/06/19 12:32:27;;;;;;;;;;;27.80;40.30;;;;;;1523239;76;862;-66